createdAt,value
2022-10-03T00:06:12.151Z,0.90
2022-10-03T00:08:57.052Z,1.43
2022-10-03T00:11:41.894Z,1.20
2022-10-03T00:17:22.832Z,0.90
2022-10-03T00:20:14.135Z,1.20
2022-10-03T00:22:52.096Z,1.03
2022-10-03T00:25:45.955Z,0.80
2022-10-03T00:28:31.481Z,2.00
2022-10-03T00:31:10.803Z,1.07
2022-10-03T00:33:53.827Z,1.27
2022-10-03T00:39:23.654Z,2.20
2022-10-03T00:42:13.420Z,1.23
2022-10-03T00:45:34.803Z,1.83
2022-10-03T00:57:24.182Z,1.60
2022-10-03T01:00:02.710Z,0.90
2022-10-03T01:14:04.974Z,1.63
2022-10-03T01:16:42.876Z,1.60
2022-10-03T01:19:36.206Z,1.00
2022-10-03T01:22:24.178Z,1.10
2022-10-03T01:28:44.867Z,1.40
2022-10-03T01:45:05.379Z,1.17
2022-10-03T01:53:33.809Z,1.33
2022-10-03T01:56:12.083Z,1.00
2022-10-03T01:59:02.747Z,2.30
2022-10-03T02:07:54.535Z,0.70
2022-10-03T02:19:22.183Z,1.17
2022-10-03T02:21:55.092Z,0.97
2022-10-03T02:33:35.035Z,1.93
2022-10-03T02:39:54.085Z,1.30
2022-10-03T02:45:43.713Z,1.20
2022-10-03T02:48:42.837Z,0.93
2022-10-03T02:51:09.864Z,1.27
2022-10-03T02:54:03.894Z,1.20
2022-10-03T02:56:42.212Z,1.10
2022-10-03T03:09:02.705Z,0.90
2022-10-03T03:55:32.391Z,0.90
2022-10-03T04:01:13.701Z,1.23
2022-10-03T04:31:02.402Z,1.17
2022-10-03T04:33:43.164Z,0.97
2022-10-03T05:04:43.031Z,0.70
2022-10-03T05:13:02.177Z,0.97
2022-10-03T05:26:53.420Z,0.67
2022-10-03T05:29:58.038Z,0.80
2022-10-03T05:32:54.437Z,0.80
2022-10-03T05:44:16.032Z,0.93
2022-10-03T05:50:10.967Z,0.97
2022-10-03T05:56:23.520Z,1.10
2022-10-03T05:59:08.251Z,1.10
2022-10-03T06:01:34.815Z,0.90
2022-10-03T06:07:23.450Z,0.77
2022-10-03T06:13:12.423Z,0.70
2022-10-03T06:15:54.546Z,0.87
2022-10-03T06:18:23.938Z,0.50
2022-10-03T06:21:27.935Z,0.70
2022-10-03T06:24:25.438Z,1.00
2022-10-03T06:27:32.203Z,0.80
2022-10-03T06:30:22.317Z,0.50
2022-10-03T06:33:36.494Z,0.80
2022-10-03T06:36:34.495Z,0.77
2022-10-03T06:50:54.321Z,0.63
2022-10-03T06:54:02.146Z,0.83
2022-10-03T06:59:32.430Z,0.60
2022-10-03T07:02:17.546Z,0.77
2022-10-03T07:05:15.076Z,0.83
2022-10-03T07:11:04.682Z,0.70
2022-10-03T07:16:55.062Z,0.67
2022-10-03T07:19:26.049Z,0.90
2022-10-03T07:22:29.843Z,0.70
2022-10-03T07:25:02.119Z,1.03
2022-10-03T07:27:51.414Z,0.67
2022-10-03T07:36:40.910Z,0.80
2022-10-03T07:39:16.408Z,0.50
2022-10-03T07:42:21.146Z,2.43
2022-10-03T07:45:11.620Z,0.97
2022-10-03T07:50:59.211Z,1.07
2022-10-03T07:53:56.569Z,0.90
2022-10-03T07:56:42.658Z,0.50
2022-10-03T07:59:46.986Z,0.83
2022-10-03T08:02:58.179Z,1.10
2022-10-03T08:14:47.837Z,0.70
2022-10-03T08:23:01.055Z,0.80
2022-10-03T08:29:08.579Z,0.73
2022-10-03T08:32:01.419Z,1.70
2022-10-03T08:34:37.772Z,0.57
2022-10-03T08:37:39.941Z,0.93
2022-10-03T08:43:51.824Z,0.50
2022-10-03T08:49:25.800Z,1.47
2022-10-03T08:58:15.067Z,0.80
2022-10-03T09:01:19.587Z,0.97
2022-10-03T09:04:03.975Z,0.87
2022-10-03T09:07:15.902Z,0.70
2022-10-03T09:10:04.309Z,1.30
2022-10-03T09:12:56.283Z,1.00
2022-10-03T09:15:54.916Z,0.97
2022-10-03T09:18:52.161Z,1.37
2022-10-03T09:24:02.927Z,0.87
2022-10-03T09:26:53.683Z,1.10
2022-10-03T09:29:28.986Z,0.73
2022-10-03T09:32:33.131Z,0.90
2022-10-03T09:35:18.431Z,1.10
2022-10-03T09:38:03.713Z,0.90
2022-10-03T09:40:53.308Z,1.70
2022-10-03T09:43:48.099Z,1.33
2022-10-03T09:46:32.776Z,0.80
2022-10-03T09:49:05.067Z,1.10
2022-10-03T09:51:47.055Z,1.13
2022-10-03T09:57:22.609Z,0.90
2022-10-03T10:00:17.361Z,1.00
2022-10-03T10:03:18.683Z,1.63
2022-10-03T10:06:12.544Z,1.30
2022-10-03T10:08:57.923Z,0.97
2022-10-03T10:11:46.504Z,0.83
2022-10-03T10:14:41.766Z,0.90
2022-10-03T10:17:26.098Z,1.33
2022-10-03T10:20:02.990Z,0.90
2022-10-03T10:52:04.547Z,1.40
2022-10-03T10:55:08.827Z,1.03
2022-10-03T10:57:53.166Z,0.73
2022-10-03T11:00:26.350Z,1.00
2022-10-03T11:02:55.790Z,1.00
2022-10-03T11:05:41.023Z,0.90
2022-10-03T11:08:26.083Z,1.33
2022-10-03T11:11:28.972Z,1.60
2022-10-03T11:14:16.458Z,1.53
2022-10-03T11:17:01.543Z,2.27
2022-10-03T11:20:05.837Z,1.30
2022-10-03T11:23:01.021Z,1.07
2022-10-03T11:26:04.367Z,1.03
2022-10-03T11:29:07.166Z,1.57
2022-10-03T11:32:24.167Z,1.77
2022-10-03T11:35:18.318Z,1.30
2022-10-03T11:38:13.176Z,1.57
2022-10-03T11:40:55.674Z,2.27
2022-10-03T11:43:47.331Z,1.00
2022-10-03T11:46:20.368Z,1.70
2022-10-03T11:48:54.512Z,0.80
2022-10-03T11:51:53.392Z,1.30
2022-10-03T11:54:34.530Z,1.20
2022-10-03T11:57:21.747Z,2.23
2022-10-03T12:00:20.453Z,2.00
2022-10-03T12:03:05.591Z,1.27
2022-10-03T12:05:35.251Z,1.10
2022-10-03T12:08:20.423Z,1.43
2022-10-03T12:10:46.893Z,3.30
2022-10-03T12:16:38.573Z,1.17
2022-10-03T12:19:30.779Z,1.43
2022-10-03T12:22:30.624Z,1.10
2022-10-03T12:25:19.170Z,1.63
2022-10-03T12:28:12.474Z,0.73
2022-10-03T12:31:10.255Z,2.57
2022-10-03T12:33:57.875Z,1.93
2022-10-03T12:36:53.171Z,1.87
2022-10-03T12:39:47.910Z,1.23
2022-10-03T12:42:45.167Z,1.20
2022-10-03T12:48:42.753Z,1.13
2022-10-03T12:51:54.535Z,1.07
2022-10-03T12:54:35.739Z,1.67
2022-10-03T12:57:31.407Z,1.27
2022-10-03T13:00:26.839Z,1.27
2022-10-03T13:03:18.968Z,1.30
2022-10-03T13:08:54.022Z,1.93
2022-10-03T13:11:39.195Z,0.97
2022-10-03T13:14:28.067Z,1.50
2022-10-03T13:17:00.231Z,2.40
2022-10-03T13:19:36.491Z,1.23
2022-10-03T13:22:20.935Z,1.00
2022-10-03T13:25:12.075Z,2.40
2022-10-03T13:27:52.148Z,1.73
2022-10-03T13:30:40.053Z,1.40
2022-10-03T13:33:13.647Z,1.23
2022-10-03T13:35:59.317Z,1.57
2022-10-03T13:38:36.547Z,1.20
2022-10-03T13:41:21.797Z,1.60
2022-10-03T13:43:56.658Z,1.10
2022-10-03T13:46:53.366Z,2.07
2022-10-03T13:49:34.381Z,1.67
2022-10-03T13:52:22.051Z,1.53
2022-10-03T13:55:10.250Z,1.13
2022-10-03T13:57:44.871Z,1.73
2022-10-03T14:00:16.150Z,1.37
2022-10-03T14:03:01.448Z,1.67
2022-10-03T14:05:39.342Z,1.20
2022-10-03T14:08:31.152Z,3.33
2022-10-03T14:11:33.388Z,2.57
2022-10-03T14:14:14.816Z,3.90
2022-10-03T14:16:48.357Z,3.17
2022-10-03T14:19:39.484Z,5.33
2022-10-03T14:24:52.540Z,3.90
2022-10-03T14:27:51.043Z,2.13
2022-10-03T14:30:24.626Z,4.23
2022-10-03T14:33:17.211Z,5.43
2022-10-03T14:36:28.490Z,5.27
2022-10-03T14:39:28.344Z,6.50
2022-10-03T14:41:54.802Z,3.03
2022-10-03T14:47:02.853Z,4.17
2022-10-03T14:52:27.643Z,3.43
2022-10-03T14:55:02.696Z,3.70
2022-10-03T15:00:22.515Z,4.93
2022-10-03T15:02:50.786Z,3.20
2022-10-03T15:05:51.159Z,3.53
2022-10-03T15:08:18.840Z,4.17
2022-10-03T15:13:19.595Z,3.37
2022-10-03T15:28:50.961Z,2.27
2022-10-03T15:34:19.543Z,4.37
2022-10-03T15:36:50.630Z,5.67
2022-10-03T15:44:50.224Z,3.53
2022-10-03T15:50:00.332Z,3.47
2022-10-03T15:55:34.615Z,3.07
2022-10-03T15:58:26.807Z,5.93
2022-10-03T16:01:18.780Z,4.60
2022-10-03T16:06:38.835Z,4.40
2022-10-03T16:18:29.530Z,5.20
2022-10-03T16:20:59.190Z,4.27
2022-10-03T16:28:39.414Z,3.43
2022-10-03T16:38:59.867Z,3.40
2022-10-03T16:57:59.343Z,7.13
2022-10-03T17:01:25.742Z,3.60
2022-10-03T17:03:59.684Z,4.37
2022-10-03T17:06:30.826Z,2.77
2022-10-03T17:09:02.487Z,3.93
2022-10-03T17:11:32.387Z,4.20
2022-10-03T17:14:03.608Z,3.80
2022-10-03T17:27:59.495Z,5.37
2022-10-03T17:30:49.391Z,4.13
2022-10-03T17:39:41.718Z,6.17
2022-10-03T17:42:36.739Z,4.97
2022-10-03T17:45:30.384Z,5.53
2022-10-03T17:48:20.171Z,3.20
2022-10-03T17:51:11.590Z,8.47
2022-10-03T17:53:39.199Z,5.70
2022-10-03T17:56:14.692Z,5.93
2022-10-03T17:58:46.051Z,6.43
2022-10-03T18:01:19.933Z,6.00
2022-10-03T18:03:57.257Z,7.83
2022-10-03T18:06:30.034Z,4.63
2022-10-03T18:08:57.191Z,7.60
2022-10-03T18:11:29.575Z,7.03
2022-10-03T18:14:09.109Z,4.20
2022-10-03T18:16:59.043Z,6.17
2022-10-03T18:20:11.653Z,5.43
2022-10-03T18:26:18.809Z,11.17
2022-10-03T18:28:48.308Z,16.70
2022-10-03T18:31:19.119Z,21.50
2022-10-03T18:33:50.999Z,17.47
2022-10-03T18:36:24.972Z,17.03
2022-10-03T18:38:56.367Z,17.57
2022-10-03T18:41:24.547Z,19.93
2022-10-03T18:43:58.659Z,15.07
2022-10-03T18:46:42.495Z,12.47
2022-10-03T18:49:34.847Z,10.37
2022-10-03T18:52:31.730Z,14.23
2022-10-03T18:55:09.525Z,13.20
2022-10-03T18:57:49.539Z,10.63
2022-10-03T19:00:20.022Z,14.43
2022-10-03T19:03:13.323Z,13.97
2022-10-03T19:11:29.933Z,9.30
2022-10-03T19:14:13.346Z,9.87
2022-10-03T19:16:44.118Z,9.17
2022-10-03T19:19:49.085Z,11.60
2022-10-03T19:22:21.044Z,7.87
2022-10-03T19:25:02.584Z,10.83
2022-10-03T19:27:42.287Z,12.03
2022-10-03T19:30:09.546Z,10.73
2022-10-03T19:35:21.761Z,10.30
2022-10-03T19:42:01.796Z,8.47
2022-10-03T19:44:29.589Z,9.33
2022-10-03T19:47:02.553Z,9.83
2022-10-03T19:49:53.288Z,7.67
2022-10-03T19:52:19.755Z,8.50
2022-10-03T19:57:32.530Z,8.57
2022-10-03T20:00:03.719Z,10.97
2022-10-03T20:02:31.123Z,7.33
2022-10-03T20:11:00.376Z,7.27
2022-10-03T20:15:58.844Z,7.00
2022-10-03T20:18:30.026Z,7.47
2022-10-03T20:23:32.503Z,5.97
2022-10-03T20:26:12.332Z,7.03
2022-10-03T20:34:20.817Z,7.80
2022-10-03T20:36:52.118Z,8.50
2022-10-03T20:44:58.951Z,7.73
2022-10-03T20:53:20.553Z,8.67
2022-10-03T20:55:51.557Z,8.53
2022-10-03T21:01:19.067Z,13.60
2022-10-03T21:07:01.801Z,13.83
2022-10-03T21:12:21.374Z,11.33
2022-10-03T21:14:52.805Z,10.90
2022-10-03T21:17:20.817Z,10.53
2022-10-03T21:22:32.514Z,10.20
2022-10-03T21:25:03.323Z,9.77
2022-10-03T21:27:32.062Z,11.20
2022-10-03T21:35:40.937Z,9.77
2022-10-03T21:38:31.884Z,10.17
2022-10-03T21:43:42.976Z,9.77
2022-10-03T21:50:00.688Z,8.83
2022-10-03T21:52:31.447Z,10.13
2022-10-03T21:55:51.808Z,7.67
2022-10-03T21:58:30.318Z,7.07
2022-10-03T22:01:18.892Z,9.17
2022-10-03T22:11:59.111Z,7.23
2022-10-03T22:29:09.035Z,8.27
2022-10-03T22:39:38.830Z,7.37
2022-10-03T22:49:59.279Z,7.53
2022-10-03T23:06:18.795Z,6.93
2022-10-03T23:20:38.911Z,7.10
2022-10-03T23:31:49.066Z,6.37
